createdAt,value
2022-10-14T00:01:25.977Z,5.13
2022-10-14T00:03:54.933Z,10.40
2022-10-14T00:06:25.585Z,10.35
2022-10-14T00:08:54.353Z,9.85
2022-10-14T00:11:28.225Z,8.20
2022-10-14T00:13:58.395Z,11.55
2022-10-14T00:16:33.435Z,7.22
2022-10-14T00:19:01.593Z,9.15
2022-10-14T00:21:30.456Z,8.73
2022-10-14T00:23:58.397Z,8.73
2022-10-14T00:26:35.603Z,7.95
2022-10-14T00:29:04.974Z,5.85
2022-10-14T00:31:33.442Z,8.55
2022-10-14T00:34:01.466Z,9.35
2022-10-14T00:36:28.925Z,11.48
2022-10-14T00:38:56.422Z,5.78
2022-10-14T00:41:25.852Z,6.13
2022-10-14T00:43:55.778Z,10.82
2022-10-14T00:46:24.704Z,6.25
2022-10-14T00:49:03.733Z,8.18
2022-10-14T00:51:31.695Z,7.72
2022-10-14T00:53:59.219Z,8.40
2022-10-14T00:56:29.754Z,5.57
2022-10-14T00:58:58.496Z,7.40
2022-10-14T01:01:25.930Z,6.35
2022-10-14T01:03:53.473Z,8.20
2022-10-14T01:06:38.763Z,9.13
2022-10-14T01:09:29.003Z,7.45
2022-10-14T01:12:28.524Z,6.43
2022-10-14T01:15:19.131Z,5.90
2022-10-14T01:18:22.684Z,5.35
2022-10-14T01:21:22.714Z,4.68
2022-10-14T01:24:13.293Z,6.22
2022-10-14T01:27:06.005Z,5.57
2022-10-14T01:30:01.553Z,7.45
2022-10-14T01:32:52.543Z,5.53
2022-10-14T01:35:24.103Z,7.18
2022-10-14T01:37:58.064Z,7.65
2022-10-14T01:41:07.063Z,8.25
2022-10-14T01:43:36.573Z,6.72
2022-10-14T01:46:06.545Z,5.63
2022-10-14T01:48:37.481Z,5.55
2022-10-14T01:51:14.463Z,6.28
2022-10-14T01:53:49.733Z,7.70
2022-10-14T01:56:18.265Z,8.43
2022-10-14T01:58:46.214Z,6.03
2022-10-14T02:01:13.874Z,6.53
2022-10-14T02:03:44.251Z,6.10
2022-10-14T02:06:27.343Z,7.60
2022-10-14T02:09:03.033Z,7.43
2022-10-14T02:11:40.130Z,8.15
2022-10-14T02:14:25.265Z,7.85
2022-10-14T02:17:12.923Z,9.35
2022-10-14T02:19:49.354Z,6.68
2022-10-14T02:22:28.383Z,5.25
2022-10-14T02:25:01.013Z,7.68
2022-10-14T02:27:29.824Z,7.32
2022-10-14T02:29:59.937Z,6.03
2022-10-14T02:32:28.632Z,9.20
2022-10-14T02:34:59.094Z,7.72
2022-10-14T02:37:29.873Z,7.60
2022-10-14T02:40:15.427Z,7.28
2022-10-14T02:42:43.014Z,9.23
2022-10-14T02:45:13.023Z,9.85
2022-10-14T02:47:40.655Z,7.15
2022-10-14T02:50:09.654Z,5.32
2022-10-14T02:52:37.184Z,7.38
2022-10-14T02:55:05.083Z,7.97
2022-10-14T02:57:32.581Z,7.38
2022-10-14T03:00:00.014Z,7.93
2022-10-14T03:02:28.694Z,7.93
2022-10-14T03:04:58.493Z,6.30
2022-10-14T03:07:26.326Z,6.30
2022-10-14T03:09:56.733Z,6.80
2022-10-14T03:12:25.539Z,5.47
2022-10-14T03:14:55.873Z,5.85
2022-10-14T03:17:25.603Z,4.60
2022-10-14T03:19:54.224Z,6.20
2022-10-14T03:22:21.884Z,6.72
2022-10-14T03:24:51.093Z,7.28
2022-10-14T03:27:26.794Z,6.72
2022-10-14T03:29:59.634Z,6.87
2022-10-14T03:32:27.114Z,9.77
2022-10-14T03:35:23.803Z,9.65
2022-10-14T03:37:55.255Z,6.22
2022-10-14T03:40:30.044Z,6.45
2022-10-14T03:43:04.013Z,4.43
2022-10-14T03:45:41.312Z,8.82
2022-10-14T03:48:11.434Z,5.05
2022-10-14T03:50:40.493Z,8.02
2022-10-14T03:53:09.574Z,7.72
2022-10-14T03:55:37.864Z,5.60
2022-10-14T03:58:06.705Z,5.38
2022-10-14T04:00:35.983Z,5.00
2022-10-14T04:03:27.513Z,3.50
2022-10-14T04:05:56.504Z,5.70
2022-10-14T04:08:26.624Z,6.40
2022-10-14T04:10:59.077Z,5.95
2022-10-14T04:13:31.134Z,5.00
2022-10-14T04:16:12.454Z,4.88
2022-10-14T04:19:02.414Z,6.95
2022-10-14T04:21:31.245Z,6.65
2022-10-14T04:23:58.809Z,7.72
2022-10-14T04:26:52.901Z,9.57
2022-10-14T04:29:28.098Z,10.20
2022-10-14T04:32:04.568Z,7.82
2022-10-14T04:34:32.240Z,9.70
2022-10-14T04:36:59.489Z,9.57
2022-10-14T04:39:50.038Z,6.88
2022-10-14T04:42:17.918Z,7.60
2022-10-14T04:44:48.938Z,10.23
2022-10-14T04:47:18.837Z,10.10
2022-10-14T04:49:52.120Z,11.43
2022-10-14T04:52:21.994Z,13.85
2022-10-14T04:54:58.188Z,9.02
2022-10-14T04:57:35.460Z,16.50
2022-10-14T05:00:05.446Z,21.75
2022-10-14T05:02:53.008Z,21.30
2022-10-14T05:05:27.230Z,18.10
2022-10-14T05:07:57.638Z,12.77
2022-10-14T05:10:32.538Z,18.25
2022-10-14T05:13:02.514Z,13.40
2022-10-14T05:15:33.829Z,18.83
2022-10-14T05:18:07.869Z,15.00
2022-10-14T05:21:01.648Z,15.00
2022-10-14T05:23:43.248Z,18.98
2022-10-14T05:26:11.140Z,18.08
2022-10-14T05:28:40.693Z,16.27
2022-10-14T05:31:09.239Z,14.35
2022-10-14T05:33:43.998Z,17.45
2022-10-14T05:36:11.690Z,22.20
2022-10-14T05:38:38.936Z,20.35
2022-10-14T05:41:06.248Z,22.45
2022-10-14T05:43:34.308Z,26.55
2022-10-14T05:46:05.188Z,23.88
2022-10-14T05:48:37.448Z,32.78
2022-10-14T05:51:05.318Z,29.60
2022-10-14T05:53:35.957Z,38.53
2022-10-14T05:56:08.359Z,33.75
2022-10-14T05:58:38.389Z,32.28
2022-10-14T06:01:09.045Z,32.35
2022-10-14T06:03:39.408Z,32.80
2022-10-14T06:06:08.345Z,26.05
2022-10-14T06:08:35.628Z,40.10
2022-10-14T06:11:04.458Z,36.95
2022-10-14T06:13:33.068Z,44.10
2022-10-14T06:16:07.617Z,37.03
2022-10-14T06:18:35.903Z,34.15
2022-10-14T06:21:04.343Z,31.88
2022-10-14T06:23:31.858Z,29.65
2022-10-14T06:25:59.087Z,31.98
2022-10-14T06:28:26.561Z,23.60
2022-10-14T06:30:54.919Z,29.27
2022-10-14T06:33:23.008Z,29.88
2022-10-14T06:35:50.250Z,28.98
2022-10-14T06:38:17.639Z,26.48
2022-10-14T06:40:44.838Z,27.73
2022-10-14T06:43:12.169Z,31.25
2022-10-14T06:45:39.427Z,45.15
2022-10-14T06:48:06.998Z,28.42
2022-10-14T06:50:34.218Z,22.65
2022-10-14T06:53:01.539Z,31.58
2022-10-14T06:55:28.741Z,23.67
2022-10-14T07:00:37.629Z,19.48
2022-10-14T07:03:04.955Z,29.73
2022-10-14T07:05:32.298Z,25.52
2022-10-14T07:10:31.718Z,31.10
2022-10-14T07:12:58.939Z,23.33
2022-10-14T07:15:26.219Z,26.35
2022-10-14T07:17:53.448Z,29.25
2022-10-14T07:20:20.668Z,32.28
2022-10-14T07:22:47.898Z,24.65
2022-10-14T07:25:15.138Z,35.45
2022-10-14T07:27:42.370Z,26.70
2022-10-14T07:30:12.601Z,23.45
2022-10-14T07:32:42.629Z,20.27
2022-10-14T07:35:09.989Z,21.27
2022-10-14T07:37:37.339Z,25.65
2022-10-14T07:40:04.908Z,28.98
2022-10-14T07:42:32.209Z,31.15
2022-10-14T07:47:40.509Z,22.35
2022-10-14T07:50:08.088Z,33.78
2022-10-14T07:52:35.428Z,19.10
2022-10-14T07:55:02.728Z,21.17
2022-10-14T07:57:30.009Z,26.38
2022-10-14T07:59:58.329Z,20.38
2022-10-14T08:02:25.680Z,31.00
2022-10-14T08:05:04.131Z,27.45
2022-10-14T08:07:40.642Z,20.58
2022-10-14T08:10:07.940Z,27.45
2022-10-14T08:12:35.198Z,20.85
2022-10-14T08:15:02.649Z,22.85
2022-10-14T08:17:29.918Z,17.25
2022-10-14T08:19:57.118Z,24.80
2022-10-14T08:22:24.638Z,19.85
2022-10-14T08:24:52.188Z,16.83
2022-10-14T08:30:00.549Z,15.43
2022-10-14T08:32:27.818Z,22.02
2022-10-14T08:34:56.390Z,22.02
2022-10-14T08:37:23.999Z,23.73
2022-10-14T08:39:51.246Z,20.88
2022-10-14T08:42:35.809Z,16.80
2022-10-14T08:45:15.568Z,16.67
2022-10-14T08:47:46.401Z,24.70
2022-10-14T08:50:32.230Z,24.58
2022-10-14T08:53:13.902Z,21.25
2022-10-14T08:55:51.362Z,25.80
2022-10-14T08:58:32.158Z,23.45
2022-10-14T09:01:08.656Z,15.18
2022-10-14T09:03:38.638Z,24.05
2022-10-14T09:06:07.698Z,21.60
2022-10-14T09:08:40.869Z,29.13
2022-10-14T09:15:16.379Z,20.33
2022-10-14T09:22:03.420Z,17.38
2022-10-14T09:24:58.429Z,19.15
2022-10-14T09:27:26.190Z,19.65
2022-10-14T09:30:10.994Z,16.58
2022-10-14T09:32:45.209Z,19.15
2022-10-14T09:35:25.518Z,14.73
2022-10-14T09:41:32.256Z,13.52
2022-10-14T09:44:22.201Z,14.85
2022-10-14T09:47:02.459Z,13.80
2022-10-14T09:49:40.518Z,12.48
2022-10-14T09:52:20.088Z,10.13
2022-10-14T09:54:57.298Z,14.40
2022-10-14T09:57:25.670Z,12.10
2022-10-14T09:59:58.918Z,9.77
2022-10-14T10:02:42.356Z,17.48
2022-10-14T10:05:26.762Z,16.42
2022-10-14T10:08:07.737Z,17.48
2022-10-14T10:10:35.519Z,13.20
2022-10-14T10:13:03.002Z,15.40
2022-10-14T10:15:30.469Z,11.93
2022-10-14T10:17:57.687Z,7.25
2022-10-14T10:20:33.925Z,13.65
2022-10-14T10:23:36.881Z,11.48
2022-10-14T10:26:27.161Z,10.43
2022-10-14T10:28:57.696Z,8.27
2022-10-14T10:31:33.069Z,9.93
2022-10-14T10:34:19.351Z,13.18
2022-10-14T10:36:59.469Z,8.02
2022-10-14T10:39:46.599Z,9.73
2022-10-14T10:42:21.325Z,6.68
2022-10-14T10:44:53.436Z,9.85
2022-10-14T10:47:38.926Z,11.90
2022-10-14T10:50:39.416Z,9.00
2022-10-14T10:53:52.396Z,11.18
2022-10-14T10:56:39.055Z,10.25
2022-10-14T10:59:21.711Z,10.57
2022-10-14T11:01:55.086Z,11.38
2022-10-14T11:04:50.179Z,10.27
2022-10-14T11:07:54.580Z,6.65
2022-10-14T11:13:36.969Z,8.63
2022-10-14T11:16:07.812Z,13.65
2022-10-14T11:18:53.335Z,9.15
2022-10-14T11:21:30.601Z,8.55
2022-10-14T11:24:07.026Z,10.60
2022-10-14T11:27:05.753Z,10.57
2022-10-14T11:30:02.343Z,11.55
2022-10-14T11:32:59.613Z,9.77
2022-10-14T11:35:38.608Z,8.32
2022-10-14T11:38:39.003Z,5.55
2022-10-14T11:41:43.172Z,10.68
2022-10-14T11:44:20.233Z,11.55
2022-10-14T11:46:54.082Z,14.80
2022-10-14T11:50:01.592Z,9.82
2022-10-14T11:52:35.444Z,12.50
2022-10-14T11:55:14.702Z,10.23
2022-10-14T11:57:50.572Z,12.30
2022-10-14T12:00:22.332Z,11.73
2022-10-14T12:03:03.051Z,13.70
2022-10-14T12:05:43.622Z,7.93
2022-10-14T12:08:51.072Z,11.77
2022-10-14T12:11:35.294Z,10.27
2022-10-14T12:14:34.157Z,12.88
2022-10-14T12:17:06.684Z,11.77
2022-10-14T12:19:34.613Z,16.10
2022-10-14T12:22:18.686Z,15.93
2022-10-14T12:24:52.429Z,9.55
2022-10-14T12:27:22.650Z,14.70
2022-10-14T12:29:51.600Z,21.52
2022-10-14T12:32:24.950Z,14.15
2022-10-14T12:34:57.655Z,9.38
2022-10-14T12:37:28.975Z,13.95
2022-10-14T12:40:07.702Z,14.93
2022-10-14T12:42:58.455Z,11.18
2022-10-14T12:45:28.901Z,10.48
2022-10-14T12:48:15.402Z,10.25
2022-10-14T12:50:46.493Z,7.97
2022-10-14T12:53:28.852Z,11.15
2022-10-14T12:56:01.342Z,8.95
2022-10-14T12:58:56.222Z,9.20
2022-10-14T13:01:23.727Z,12.75
2022-10-14T13:06:40.225Z,10.80
2022-10-14T13:09:13.643Z,10.43
2022-10-14T13:14:27.642Z,11.82
2022-10-14T13:16:57.624Z,9.80
2022-10-14T13:19:34.154Z,6.25
2022-10-14T13:22:22.502Z,11.40
2022-10-14T13:24:49.850Z,7.35
2022-10-14T13:27:28.215Z,9.02
2022-10-14T13:30:11.140Z,8.55
2022-10-14T13:32:38.322Z,6.33
2022-10-14T13:35:32.365Z,15.55
2022-10-14T13:40:40.403Z,8.55
2022-10-14T13:43:12.173Z,9.52
2022-10-14T13:45:49.363Z,10.50
2022-10-14T13:48:21.192Z,12.00
2022-10-14T13:50:54.173Z,8.88
2022-10-14T13:53:26.042Z,9.43
2022-10-14T13:55:54.653Z,7.57
2022-10-14T13:58:24.545Z,9.95
2022-10-14T14:01:00.570Z,11.27
2022-10-14T14:03:35.664Z,9.05
2022-10-14T14:06:15.618Z,11.02
2022-10-14T14:08:48.350Z,14.65
2022-10-14T14:11:36.822Z,9.77
2022-10-14T14:14:17.343Z,10.18
2022-10-14T14:16:56.665Z,14.32
2022-10-14T14:19:36.804Z,11.60
2022-10-14T14:22:18.984Z,14.27
2022-10-14T14:24:48.262Z,10.93
2022-10-14T14:27:26.792Z,9.85
2022-10-14T14:29:55.410Z,8.18
2022-10-14T14:32:28.480Z,11.82
2022-10-14T14:34:55.806Z,10.35
2022-10-14T14:37:48.213Z,13.20
2022-10-14T14:40:27.192Z,13.25
2022-10-14T14:43:05.783Z,11.20
2022-10-14T14:45:42.697Z,14.23
2022-10-14T14:48:15.636Z,13.70
2022-10-14T14:50:45.232Z,14.93
2022-10-14T14:53:17.857Z,9.95
2022-10-14T14:55:54.271Z,11.70
2022-10-14T14:58:24.824Z,12.35
2022-10-14T15:00:54.262Z,10.57
2022-10-14T15:03:24.632Z,12.10
2022-10-14T15:06:00.813Z,10.82
2022-10-14T15:08:32.054Z,14.85
2022-10-14T15:11:00.639Z,18.17
2022-10-14T15:13:53.553Z,17.35
2022-10-14T15:16:38.112Z,15.15
2022-10-14T15:19:38.174Z,17.38
2022-10-14T15:22:31.749Z,18.48
2022-10-14T15:25:23.006Z,15.77
2022-10-14T15:27:55.904Z,15.57
2022-10-14T15:30:36.702Z,14.80
2022-10-14T15:33:25.237Z,13.70
2022-10-14T15:36:18.333Z,11.93
2022-10-14T15:38:51.252Z,16.90
2022-10-14T15:41:47.460Z,11.95
2022-10-14T15:44:20.451Z,8.88
2022-10-14T15:47:36.334Z,12.38
2022-10-14T15:50:22.970Z,11.13
2022-10-14T15:53:29.762Z,11.15
2022-10-14T15:56:21.389Z,11.27
2022-10-14T15:58:54.622Z,14.25
2022-10-14T16:01:45.436Z,20.20
2022-10-14T16:04:39.228Z,14.55
2022-10-14T16:07:27.542Z,19.40
2022-10-14T16:10:47.534Z,15.35
2022-10-14T16:13:17.402Z,20.02
2022-10-14T16:16:16.083Z,19.60
2022-10-14T16:18:46.442Z,17.85
2022-10-14T16:21:17.154Z,20.08
2022-10-14T16:29:18.291Z,14.65
2022-10-14T16:31:52.532Z,11.88
2022-10-14T16:34:25.821Z,15.07
2022-10-14T16:36:53.183Z,20.73
2022-10-14T16:39:20.501Z,21.85
2022-10-14T16:41:48.653Z,23.17
2022-10-14T16:44:25.018Z,19.00
2022-10-14T16:47:12.381Z,21.17
2022-10-14T16:49:40.704Z,17.95
2022-10-14T16:52:08.753Z,20.00
2022-10-14T16:54:36.052Z,22.05
2022-10-14T16:57:04.312Z,19.50
2022-10-14T16:59:32.203Z,16.98
2022-10-14T17:02:00.263Z,18.58
2022-10-14T17:04:28.073Z,15.88
2022-10-14T17:06:58.561Z,21.58
2022-10-14T17:12:01.721Z,21.92
2022-10-14T17:14:31.364Z,13.68
2022-10-14T17:17:00.271Z,13.68
2022-10-14T17:19:27.801Z,22.55
2022-10-14T17:21:55.159Z,14.93
2022-10-14T17:24:23.403Z,18.17
2022-10-14T17:26:50.692Z,18.70
2022-10-14T17:29:18.022Z,22.67
2022-10-14T17:31:46.344Z,21.80
2022-10-14T17:34:14.058Z,18.42
2022-10-14T17:36:41.831Z,23.38
2022-10-14T17:39:18.739Z,17.88
2022-10-14T17:41:52.665Z,21.48
2022-10-14T17:44:20.002Z,20.63
2022-10-14T17:46:47.227Z,21.83
2022-10-14T17:49:15.213Z,24.90
2022-10-14T17:51:42.854Z,20.13
2022-10-14T17:54:11.913Z,19.65
2022-10-14T17:56:40.461Z,22.75
2022-10-14T17:59:10.661Z,24.20
2022-10-14T18:04:25.564Z,26.08
2022-10-14T18:06:54.368Z,25.48
2022-10-14T18:09:36.912Z,22.92
2022-10-14T18:12:09.200Z,24.75
2022-10-14T18:15:05.461Z,25.60
2022-10-14T18:17:45.041Z,29.42
2022-10-14T18:22:45.105Z,20.90
2022-10-14T18:25:13.501Z,17.30
2022-10-14T18:28:08.003Z,22.73
2022-10-14T18:30:43.982Z,23.25
2022-10-14T18:33:36.412Z,24.45
2022-10-14T18:36:08.882Z,22.02
2022-10-14T18:38:53.881Z,22.05
2022-10-14T18:41:27.421Z,27.88
2022-10-14T18:46:41.073Z,19.80
2022-10-14T18:49:39.897Z,20.15
2022-10-14T18:52:14.322Z,19.55
2022-10-14T18:57:46.751Z,19.13
2022-10-14T19:00:17.173Z,24.42
2022-10-14T19:02:50.481Z,23.52
2022-10-14T19:10:30.311Z,22.50
2022-10-14T19:12:58.211Z,23.23
2022-10-14T19:15:26.631Z,23.92
2022-10-14T19:17:56.253Z,17.85
2022-10-14T19:20:23.521Z,17.30
2022-10-14T19:22:55.651Z,13.82
2022-10-14T19:25:24.161Z,19.13
2022-10-14T19:27:52.652Z,21.08
2022-10-14T19:30:20.134Z,21.05
2022-10-14T19:32:47.311Z,17.73
2022-10-14T19:35:14.713Z,16.50
2022-10-14T19:37:41.891Z,12.93
2022-10-14T19:40:09.542Z,15.13
2022-10-14T19:42:36.901Z,15.35
2022-10-14T19:45:04.501Z,14.05
2022-10-14T19:47:31.691Z,13.90
2022-10-14T19:49:58.945Z,11.77
2022-10-14T19:52:26.333Z,17.13
2022-10-14T19:54:53.602Z,19.63
2022-10-14T20:00:02.922Z,12.85
2022-10-14T20:02:31.700Z,10.80
2022-10-14T20:04:58.922Z,11.60
2022-10-14T20:07:26.201Z,15.23
2022-10-14T20:09:53.498Z,12.25
2022-10-14T20:12:21.195Z,19.38
2022-10-14T20:14:48.632Z,9.73
2022-10-14T20:17:15.868Z,18.58
2022-10-14T20:19:43.342Z,14.40
2022-10-14T20:22:10.530Z,14.25
2022-10-14T20:24:40.163Z,11.65
2022-10-14T20:27:10.984Z,13.38
2022-10-14T20:35:01.351Z,13.63
2022-10-14T20:37:32.347Z,11.15
2022-10-14T20:39:59.732Z,11.60
2022-10-14T20:42:26.972Z,14.25
2022-10-14T20:44:54.682Z,13.23
2022-10-14T20:47:22.053Z,11.73
2022-10-14T20:49:49.391Z,12.60
2022-10-14T20:52:16.602Z,13.23
2022-10-14T20:54:43.840Z,9.48
2022-10-14T20:57:11.053Z,16.02
2022-10-14T20:59:41.661Z,9.40
2022-10-14T21:02:22.842Z,10.93
2022-10-14T21:04:53.532Z,9.82
2022-10-14T21:07:21.746Z,11.25
2022-10-14T21:09:49.462Z,16.95
2022-10-14T21:12:16.675Z,13.05
2022-10-14T21:14:43.831Z,12.27
2022-10-14T21:17:11.110Z,11.20
2022-10-14T21:19:38.419Z,14.13
2022-10-14T21:22:05.622Z,16.88
2022-10-14T21:24:33.022Z,11.70
2022-10-14T21:27:00.272Z,11.43
2022-10-14T21:29:27.601Z,15.82
2022-10-14T21:31:54.770Z,11.55
2022-10-14T21:34:24.923Z,15.45
2022-10-14T21:36:52.151Z,12.57
2022-10-14T21:39:19.411Z,11.52
2022-10-14T21:41:46.913Z,12.00
2022-10-14T21:44:16.301Z,13.63
2022-10-14T21:46:43.979Z,13.80
2022-10-14T21:49:11.534Z,13.90
2022-10-14T21:51:39.344Z,10.82
2022-10-14T21:54:07.123Z,11.05
2022-10-14T21:56:34.391Z,13.77
2022-10-14T21:59:01.601Z,10.27
2022-10-14T22:01:48.531Z,16.83
2022-10-14T22:04:15.741Z,22.63
2022-10-14T22:06:42.860Z,12.00
2022-10-14T22:09:15.749Z,11.82
2022-10-14T22:11:42.983Z,9.60
2022-10-14T22:14:17.647Z,12.50
2022-10-14T22:16:46.930Z,15.20
2022-10-14T22:19:14.872Z,21.88
2022-10-14T22:21:43.789Z,13.48
2022-10-14T22:24:11.298Z,17.95
2022-10-14T22:26:40.553Z,16.27
2022-10-14T22:29:12.972Z,13.95
2022-10-14T22:31:40.488Z,15.32
2022-10-14T22:34:10.373Z,22.92
2022-10-14T22:36:38.261Z,18.15
2022-10-14T22:39:08.439Z,20.52
2022-10-14T22:41:36.206Z,17.02
2022-10-14T22:44:05.411Z,19.88
2022-10-14T22:46:35.010Z,17.65
2022-10-14T22:49:02.610Z,13.70
2022-10-14T22:51:32.549Z,17.80
2022-10-14T22:53:59.949Z,14.35
2022-10-14T22:56:29.139Z,15.00
2022-10-14T22:58:58.539Z,14.48
2022-10-14T23:01:28.110Z,13.35
2022-10-14T23:03:57.321Z,11.77
2022-10-14T23:06:25.020Z,14.25
2022-10-14T23:08:52.661Z,20.05
2022-10-14T23:11:21.683Z,12.40
2022-10-14T23:13:49.340Z,17.13
2022-10-14T23:16:19.641Z,16.67
2022-10-14T23:18:47.620Z,16.35
2022-10-14T23:21:17.689Z,19.38
2022-10-14T23:23:47.111Z,11.98
2022-10-14T23:26:17.488Z,17.23
2022-10-14T23:28:49.135Z,19.85
2022-10-14T23:31:19.019Z,14.07
2022-10-14T23:33:46.672Z,13.00
2022-10-14T23:36:16.127Z,12.38
2022-10-14T23:38:43.508Z,12.45
2022-10-14T23:41:13.049Z,15.02
2022-10-14T23:43:41.419Z,11.57
2022-10-14T23:46:09.529Z,10.55
2022-10-14T23:48:37.297Z,13.23
2022-10-14T23:51:05.193Z,9.40
2022-10-14T23:53:33.230Z,10.20
2022-10-14T23:56:00.879Z,12.45
2022-10-14T23:58:29.900Z,10.48
